sensor_id;sensor_type;location;lat;lon;timestamp;temperature;humidity
21425;DHT22;10873;51.132;16.848;2023-10-31T00:01:54;24.60;67.00
21425;DHT22;10873;51.132;16.848;2023-10-31T00:04:21;24.60;67.00
21425;DHT22;10873;51.132;16.848;2023-10-31T00:06:49;24.60;67.10
21425;DHT22;10873;51.132;16.848;2023-10-31T00:09:16;24.60;67.10
21425;DHT22;10873;51.132;16.848;2023-10-31T00:11:42;24.60;67.10
21425;DHT22;10873;51.132;16.848;2023-10-31T00:14:10;24.60;67.20
21425;DHT22;10873;51.132;16.848;2023-10-31T00:16:36;24.70;67.20
21425;DHT22;10873;51.132;16.848;2023-10-31T00:19:02;24.60;67.20
21425;DHT22;10873;51.132;16.848;2023-10-31T00:21:28;24.70;67.20
21425;DHT22;10873;51.132;16.848;2023-10-31T00:23:56;24.70;67.20
21425;DHT22;10873;51.132;16.848;2023-10-31T00:26:23;24.70;67.10
21425;DHT22;10873;51.132;16.848;2023-10-31T00:28:50;24.70;67.10
21425;DHT22;10873;51.132;16.848;2023-10-31T00:31:18;24.70;67.10
21425;DHT22;10873;51.132;16.848;2023-10-31T00:33:45;24.70;67.10
21425;DHT22;10873;51.132;16.848;2023-10-31T00:36:11;24.70;67.10
21425;DHT22;10873;51.132;16.848;2023-10-31T00:38:37;24.70;67.10
21425;DHT22;10873;51.132;16.848;2023-10-31T00:41:08;24.70;67.10
21425;DHT22;10873;51.132;16.848;2023-10-31T00:43:34;24.70;67.10
21425;DHT22;10873;51.132;16.848;2023-10-31T00:46:03;24.70;67.10
21425;DHT22;10873;51.132;16.848;2023-10-31T00:48:31;24.70;67.10
21425;DHT22;10873;51.132;16.848;2023-10-31T00:51:02;24.70;67.90
21425;DHT22;10873;51.132;16.848;2023-10-31T00:53:28;24.70;67.10
21425;DHT22;10873;51.132;16.848;2023-10-31T00:55:57;24.70;67.10
21425;DHT22;10873;51.132;16.848;2023-10-31T00:58:25;24.70;67.10
21425;DHT22;10873;51.132;16.848;2023-10-31T01:00:51;24.70;67.10
21425;DHT22;10873;51.132;16.848;2023-10-31T01:03:17;24.70;67.20
21425;DHT22;10873;51.132;16.848;2023-10-31T01:05:43;24.70;67.10
21425;DHT22;10873;51.132;16.848;2023-10-31T01:08:19;24.60;67.10
21425;DHT22;10873;51.132;16.848;2023-10-31T01:10:46;24.60;67.10
21425;DHT22;10873;51.132;16.848;2023-10-31T01:13:12;24.60;67.10
21425;DHT22;10873;51.132;16.848;2023-10-31T01:15:39;24.70;67.20
21425;DHT22;10873;51.132;16.848;2023-10-31T01:18:06;24.60;67.10
21425;DHT22;10873;51.132;16.848;2023-10-31T01:20:32;24.70;67.20
21425;DHT22;10873;51.132;16.848;2023-10-31T01:22:58;24.60;67.10
21425;DHT22;10873;51.132;16.848;2023-10-31T01:25:24;24.60;67.20
21425;DHT22;10873;51.132;16.848;2023-10-31T01:27:54;24.60;67.20
21425;DHT22;10873;51.132;16.848;2023-10-31T01:30:20;24.60;67.20
21425;DHT22;10873;51.132;16.848;2023-10-31T01:32:47;24.60;67.20
21425;DHT22;10873;51.132;16.848;2023-10-31T01:35:13;24.60;67.20
21425;DHT22;10873;51.132;16.848;2023-10-31T01:37:40;24.60;67.20
21425;DHT22;10873;51.132;16.848;2023-10-31T01:40:07;24.60;68.00
21425;DHT22;10873;51.132;16.848;2023-10-31T01:42:33;24.60;67.20
21425;DHT22;10873;51.132;16.848;2023-10-31T01:44:59;24.60;67.20
21425;DHT22;10873;51.132;16.848;2023-10-31T01:47:26;24.60;67.20
21425;DHT22;10873;51.132;16.848;2023-10-31T01:49:53;24.60;67.20
21425;DHT22;10873;51.132;16.848;2023-10-31T01:52:20;24.60;67.30
21425;DHT22;10873;51.132;16.848;2023-10-31T01:54:46;24.60;67.30
21425;DHT22;10873;51.132;16.848;2023-10-31T01:57:12;24.60;67.30
21425;DHT22;10873;51.132;16.848;2023-10-31T01:59:39;24.60;67.30
21425;DHT22;10873;51.132;16.848;2023-10-31T02:02:06;24.60;67.30
21425;DHT22;10873;51.132;16.848;2023-10-31T02:04:32;24.60;67.30
21425;DHT22;10873;51.132;16.848;2023-10-31T02:07:02;24.50;67.30
21425;DHT22;10873;51.132;16.848;2023-10-31T02:09:28;24.60;67.60
21425;DHT22;10873;51.132;16.848;2023-10-31T02:11:56;24.60;67.40
21425;DHT22;10873;51.132;16.848;2023-10-31T02:14:23;24.50;67.30
21425;DHT22;10873;51.132;16.848;2023-10-31T02:16:49;24.50;67.30
21425;DHT22;10873;51.132;16.848;2023-10-31T02:19:19;24.50;67.30
21425;DHT22;10873;51.132;16.848;2023-10-31T02:21:46;24.50;67.30
21425;DHT22;10873;51.132;16.848;2023-10-31T02:24:12;24.60;67.40
21425;DHT22;10873;51.132;16.848;2023-10-31T02:26:39;24.60;67.40
21425;DHT22;10873;51.132;16.848;2023-10-31T02:29:05;24.60;67.30
21425;DHT22;10873;51.132;16.848;2023-10-31T02:31:32;24.60;67.30
21425;DHT22;10873;51.132;16.848;2023-10-31T02:33:58;24.50;67.30
21425;DHT22;10873;51.132;16.848;2023-10-31T02:36:24;24.50;67.20
21425;DHT22;10873;51.132;16.848;2023-10-31T02:38:52;24.60;67.40
21425;DHT22;10873;51.132;16.848;2023-10-31T02:41:18;24.50;67.30
21425;DHT22;10873;51.132;16.848;2023-10-31T02:43:44;24.50;67.20
21425;DHT22;10873;51.132;16.848;2023-10-31T02:46:10;24.50;67.20
21425;DHT22;10873;51.132;16.848;2023-10-31T02:48:37;24.60;67.20
21425;DHT22;10873;51.132;16.848;2023-10-31T02:51:05;24.50;67.20
21425;DHT22;10873;51.132;16.848;2023-10-31T02:53:33;24.60;67.20
21425;DHT22;10873;51.132;16.848;2023-10-31T02:56:00;24.60;67.20
21425;DHT22;10873;51.132;16.848;2023-10-31T02:58:26;24.50;67.10
21425;DHT22;10873;51.132;16.848;2023-10-31T03:00:52;24.60;67.10
21425;DHT22;10873;51.132;16.848;2023-10-31T03:03:18;24.60;67.10
21425;DHT22;10873;51.132;16.848;2023-10-31T03:05:45;24.50;67.00
21425;DHT22;10873;51.132;16.848;2023-10-31T03:08:11;24.50;67.00
21425;DHT22;10873;51.132;16.848;2023-10-31T03:10:46;24.50;67.00
21425;DHT22;10873;51.132;16.848;2023-10-31T03:13:16;24.60;67.00
21425;DHT22;10873;51.132;16.848;2023-10-31T03:15:43;24.60;67.00
21425;DHT22;10873;51.132;16.848;2023-10-31T03:18:09;24.50;66.90
21425;DHT22;10873;51.132;16.848;2023-10-31T03:20:35;24.50;66.90
21425;DHT22;10873;51.132;16.848;2023-10-31T03:23:01;24.60;66.90
21425;DHT22;10873;51.132;16.848;2023-10-31T03:25:27;24.50;66.80
21425;DHT22;10873;51.132;16.848;2023-10-31T03:27:53;24.50;66.80
21425;DHT22;10873;51.132;16.848;2023-10-31T03:30:21;24.50;66.80
21425;DHT22;10873;51.132;16.848;2023-10-31T03:32:46;24.50;66.70
21425;DHT22;10873;51.132;16.848;2023-10-31T03:35:13;24.50;66.80
21425;DHT22;10873;51.132;16.848;2023-10-31T03:37:38;24.50;66.70
21425;DHT22;10873;51.132;16.848;2023-10-31T03:40:08;24.60;66.90
21425;DHT22;10873;51.132;16.848;2023-10-31T03:42:34;24.50;66.70
21425;DHT22;10873;51.132;16.848;2023-10-31T03:45:00;24.50;66.70
21425;DHT22;10873;51.132;16.848;2023-10-31T03:47:27;24.50;66.60
21425;DHT22;10873;51.132;16.848;2023-10-31T03:49:54;24.60;66.70
21425;DHT22;10873;51.132;16.848;2023-10-31T03:52:20;24.50;66.60
21425;DHT22;10873;51.132;16.848;2023-10-31T03:54:46;24.60;66.60
21425;DHT22;10873;51.132;16.848;2023-10-31T03:57:12;24.50;66.60
21425;DHT22;10873;51.132;16.848;2023-10-31T03:59:39;24.50;66.50
21425;DHT22;10873;51.132;16.848;2023-10-31T04:02:05;24.50;66.50
21425;DHT22;10873;51.132;16.848;2023-10-31T04:04:32;24.60;66.50
21425;DHT22;10873;51.132;16.848;2023-10-31T04:06:58;24.60;66.50
21425;DHT22;10873;51.132;16.848;2023-10-31T04:09:25;24.50;66.40
21425;DHT22;10873;51.132;16.848;2023-10-31T04:11:51;24.50;66.40
21425;DHT22;10873;51.132;16.848;2023-10-31T04:14:17;24.50;66.40
21425;DHT22;10873;51.132;16.848;2023-10-31T04:16:43;24.50;66.40
21425;DHT22;10873;51.132;16.848;2023-10-31T04:19:11;24.50;66.40
21425;DHT22;10873;51.132;16.848;2023-10-31T04:21:39;24.50;66.40
21425;DHT22;10873;51.132;16.848;2023-10-31T04:24:06;24.50;66.40
21425;DHT22;10873;51.132;16.848;2023-10-31T04:26:32;24.50;66.40
21425;DHT22;10873;51.132;16.848;2023-10-31T04:28:58;24.50;66.40
21425;DHT22;10873;51.132;16.848;2023-10-31T04:31:24;24.50;66.40
21425;DHT22;10873;51.132;16.848;2023-10-31T04:33:51;24.50;66.40
21425;DHT22;10873;51.132;16.848;2023-10-31T04:36:16;24.50;66.40
21425;DHT22;10873;51.132;16.848;2023-10-31T04:38:44;24.50;66.40
21425;DHT22;10873;51.132;16.848;2023-10-31T04:41:10;24.50;67.10
21425;DHT22;10873;51.132;16.848;2023-10-31T04:43:36;24.50;66.40
21425;DHT22;10873;51.132;16.848;2023-10-31T04:46:02;24.50;66.40
21425;DHT22;10873;51.132;16.848;2023-10-31T04:48:29;24.50;66.40
21425;DHT22;10873;51.132;16.848;2023-10-31T04:50:55;24.50;66.40
21425;DHT22;10873;51.132;16.848;2023-10-31T04:53:22;24.50;66.40
21425;DHT22;10873;51.132;16.848;2023-10-31T04:55:50;24.50;66.40
21425;DHT22;10873;51.132;16.848;2023-10-31T04:58:16;24.50;66.40
21425;DHT22;10873;51.132;16.848;2023-10-31T05:00:42;24.60;66.40
21425;DHT22;10873;51.132;16.848;2023-10-31T05:03:09;24.60;66.40
21425;DHT22;10873;51.132;16.848;2023-10-31T05:05:35;24.60;66.50
21425;DHT22;10873;51.132;16.848;2023-10-31T05:08:01;24.60;66.30
21425;DHT22;10873;51.132;16.848;2023-10-31T05:10:27;24.60;66.00
21425;DHT22;10873;51.132;16.848;2023-10-31T05:12:55;24.70;66.90
21425;DHT22;10873;51.132;16.848;2023-10-31T05:15:21;24.70;66.70
21425;DHT22;10873;51.132;16.848;2023-10-31T05:17:47;24.70;66.50
21425;DHT22;10873;51.132;16.848;2023-10-31T05:20:13;24.70;66.40
21425;DHT22;10873;51.132;16.848;2023-10-31T05:22:41;24.70;66.40
21425;DHT22;10873;51.132;16.848;2023-10-31T05:25:07;24.70;66.50
21425;DHT22;10873;51.132;16.848;2023-10-31T05:27:33;24.70;66.50
21425;DHT22;10873;51.132;16.848;2023-10-31T05:30:00;24.70;66.50
21425;DHT22;10873;51.132;16.848;2023-10-31T05:32:26;24.70;65.90
21425;DHT22;10873;51.132;16.848;2023-10-31T05:34:52;24.70;65.70
21425;DHT22;10873;51.132;16.848;2023-10-31T05:37:18;24.60;65.80
21425;DHT22;10873;51.132;16.848;2023-10-31T05:39:44;24.70;65.90
21425;DHT22;10873;51.132;16.848;2023-10-31T05:42:11;24.70;66.00
21425;DHT22;10873;51.132;16.848;2023-10-31T05:44:37;24.60;66.00
21425;DHT22;10873;51.132;16.848;2023-10-31T05:47:04;24.60;66.10
21425;DHT22;10873;51.132;16.848;2023-10-31T05:49:30;24.60;66.30
21425;DHT22;10873;51.132;16.848;2023-10-31T05:51:56;24.60;66.30
21425;DHT22;10873;51.132;16.848;2023-10-31T05:54:22;24.60;66.40
21425;DHT22;10873;51.132;16.848;2023-10-31T05:56:48;24.60;66.60
21425;DHT22;10873;51.132;16.848;2023-10-31T05:59:14;24.60;66.60
21425;DHT22;10873;51.132;16.848;2023-10-31T06:01:40;24.60;67.10
21425;DHT22;10873;51.132;16.848;2023-10-31T06:04:08;24.70;67.30
21425;DHT22;10873;51.132;16.848;2023-10-31T06:06:37;24.70;67.40
21425;DHT22;10873;51.132;16.848;2023-10-31T06:09:03;24.70;67.60
21425;DHT22;10873;51.132;16.848;2023-10-31T06:11:30;24.70;67.60
21425;DHT22;10873;51.132;16.848;2023-10-31T06:14:03;24.60;67.70
21425;DHT22;10873;51.132;16.848;2023-10-31T06:16:31;24.60;67.70
21425;DHT22;10873;51.132;16.848;2023-10-31T06:18:57;24.70;67.90
21425;DHT22;10873;51.132;16.848;2023-10-31T06:21:24;24.60;67.90
21425;DHT22;10873;51.132;16.848;2023-10-31T06:23:50;24.60;68.00
21425;DHT22;10873;51.132;16.848;2023-10-31T06:26:16;24.60;68.00
21425;DHT22;10873;51.132;16.848;2023-10-31T06:28:42;24.60;68.00
21425;DHT22;10873;51.132;16.848;2023-10-31T06:31:08;24.60;68.10
21425;DHT22;10873;51.132;16.848;2023-10-31T06:33:34;24.60;68.10
21425;DHT22;10873;51.132;16.848;2023-10-31T06:36:01;24.60;68.10
21425;DHT22;10873;51.132;16.848;2023-10-31T06:38:29;24.60;68.90
21425;DHT22;10873;51.132;16.848;2023-10-31T06:40:55;24.60;68.20
21425;DHT22;10873;51.132;16.848;2023-10-31T06:43:22;24.60;68.20
21425;DHT22;10873;51.132;16.848;2023-10-31T06:45:48;24.60;68.20
21425;DHT22;10873;51.132;16.848;2023-10-31T06:48:14;24.60;68.20
21425;DHT22;10873;51.132;16.848;2023-10-31T06:50:40;24.60;68.20
21425;DHT22;10873;51.132;16.848;2023-10-31T06:53:06;24.60;68.20
21425;DHT22;10873;51.132;16.848;2023-10-31T06:55:34;24.60;68.30
21425;DHT22;10873;51.132;16.848;2023-10-31T06:58:00;24.50;68.20
21425;DHT22;10873;51.132;16.848;2023-10-31T07:00:27;24.50;68.30
21425;DHT22;10873;51.132;16.848;2023-10-31T07:02:53;24.60;68.30
21425;DHT22;10873;51.132;16.848;2023-10-31T07:05:19;24.50;68.20
21425;DHT22;10873;51.132;16.848;2023-10-31T07:07:48;24.50;68.40
21425;DHT22;10873;51.132;16.848;2023-10-31T07:10:14;24.50;68.30
21425;DHT22;10873;51.132;16.848;2023-10-31T07:12:42;24.50;68.30
21425;DHT22;10873;51.132;16.848;2023-10-31T07:15:09;24.50;68.40
21425;DHT22;10873;51.132;16.848;2023-10-31T07:17:35;24.50;68.40
21425;DHT22;10873;51.132;16.848;2023-10-31T07:20:02;24.50;68.40
21425;DHT22;10873;51.132;16.848;2023-10-31T07:22:28;24.50;68.40
21425;DHT22;10873;51.132;16.848;2023-10-31T07:24:54;24.50;68.40
21425;DHT22;10873;51.132;16.848;2023-10-31T07:27:20;24.50;68.40
21425;DHT22;10873;51.132;16.848;2023-10-31T07:29:47;24.50;68.50
21425;DHT22;10873;51.132;16.848;2023-10-31T07:32:14;24.50;68.40
21425;DHT22;10873;51.132;16.848;2023-10-31T07:34:41;24.50;68.50
21425;DHT22;10873;51.132;16.848;2023-10-31T07:37:10;24.50;68.50
21425;DHT22;10873;51.132;16.848;2023-10-31T07:39:36;24.40;68.40
21425;DHT22;10873;51.132;16.848;2023-10-31T07:42:02;24.40;68.40
21425;DHT22;10873;51.132;16.848;2023-10-31T07:44:28;24.40;68.50
21425;DHT22;10873;51.132;16.848;2023-10-31T07:46:56;24.50;68.60
21425;DHT22;10873;51.132;16.848;2023-10-31T07:49:22;24.40;68.50
21425;DHT22;10873;51.132;16.848;2023-10-31T07:51:48;24.40;68.50
21425;DHT22;10873;51.132;16.848;2023-10-31T07:54:15;24.40;68.40
21425;DHT22;10873;51.132;16.848;2023-10-31T07:56:41;24.50;68.40
21425;DHT22;10873;51.132;16.848;2023-10-31T07:59:08;24.50;68.40
21425;DHT22;10873;51.132;16.848;2023-10-31T08:01:34;24.40;68.30
21425;DHT22;10873;51.132;16.848;2023-10-31T08:04:02;24.40;68.30
21425;DHT22;10873;51.132;16.848;2023-10-31T08:06:28;24.40;68.20
21425;DHT22;10873;51.132;16.848;2023-10-31T08:08:54;24.40;68.20
21425;DHT22;10873;51.132;16.848;2023-10-31T08:11:20;24.40;68.10
21425;DHT22;10873;51.132;16.848;2023-10-31T08:13:47;24.50;68.20
21425;DHT22;10873;51.132;16.848;2023-10-31T08:16:24;24.40;68.10
21425;DHT22;10873;51.132;16.848;2023-10-31T08:18:50;24.40;68.00
21425;DHT22;10873;51.132;16.848;2023-10-31T08:21:17;24.40;67.90
21425;DHT22;10873;51.132;16.848;2023-10-31T08:23:44;24.50;68.70
21425;DHT22;10873;51.132;16.848;2023-10-31T08:26:12;24.50;67.90
21425;DHT22;10873;51.132;16.848;2023-10-31T08:28:42;24.50;67.90
21425;DHT22;10873;51.132;16.848;2023-10-31T08:31:08;24.40;67.80
21425;DHT22;10873;51.132;16.848;2023-10-31T08:33:34;24.50;67.80
21425;DHT22;10873;51.132;16.848;2023-10-31T08:36:00;24.50;67.80
21425;DHT22;10873;51.132;16.848;2023-10-31T08:38:28;24.50;67.80
21425;DHT22;10873;51.132;16.848;2023-10-31T08:40:54;24.50;67.70
21425;DHT22;10873;51.132;16.848;2023-10-31T08:43:23;24.40;67.60
21425;DHT22;10873;51.132;16.848;2023-10-31T08:45:49;24.40;67.60
21425;DHT22;10873;51.132;16.848;2023-10-31T08:48:15;24.50;67.60
21425;DHT22;10873;51.132;16.848;2023-10-31T08:50:41;24.50;67.70
21425;DHT22;10873;51.132;16.848;2023-10-31T08:53:07;24.40;67.50
21425;DHT22;10873;51.132;16.848;2023-10-31T08:55:35;24.40;67.40
21425;DHT22;10873;51.132;16.848;2023-10-31T08:58:01;24.50;67.50
21425;DHT22;10873;51.132;16.848;2023-10-31T09:00:27;24.40;67.40
21425;DHT22;10873;51.132;16.848;2023-10-31T09:02:54;24.50;67.50
21425;DHT22;10873;51.132;16.848;2023-10-31T09:05:20;24.50;67.50
21425;DHT22;10873;51.132;16.848;2023-10-31T09:07:47;24.40;67.40
21425;DHT22;10873;51.132;16.848;2023-10-31T09:10:13;24.50;67.50
21425;DHT22;10873;51.132;16.848;2023-10-31T09:12:40;24.50;67.50
21425;DHT22;10873;51.132;16.848;2023-10-31T09:15:07;24.50;67.40
21425;DHT22;10873;51.132;16.848;2023-10-31T09:17:33;24.50;67.30
21425;DHT22;10873;51.132;16.848;2023-10-31T09:19:59;24.50;67.30
21425;DHT22;10873;51.132;16.848;2023-10-31T09:22:25;24.50;67.20
21425;DHT22;10873;51.132;16.848;2023-10-31T09:24:51;24.50;67.20
21425;DHT22;10873;51.132;16.848;2023-10-31T09:27:17;24.50;67.10
21425;DHT22;10873;51.132;16.848;2023-10-31T09:29:45;24.50;67.10
21425;DHT22;10873;51.132;16.848;2023-10-31T09:32:11;24.50;67.00
21425;DHT22;10873;51.132;16.848;2023-10-31T09:34:37;24.50;67.00
21425;DHT22;10873;51.132;16.848;2023-10-31T09:37:03;24.50;66.90
21425;DHT22;10873;51.132;16.848;2023-10-31T09:39:29;24.50;66.80
21425;DHT22;10873;51.132;16.848;2023-10-31T09:41:55;24.60;66.90
21425;DHT22;10873;51.132;16.848;2023-10-31T09:44:21;24.60;66.70
21425;DHT22;10873;51.132;16.848;2023-10-31T09:46:50;24.60;66.70
21425;DHT22;10873;51.132;16.848;2023-10-31T09:49:17;24.60;66.60
21425;DHT22;10873;51.132;16.848;2023-10-31T09:51:43;24.60;66.60
21425;DHT22;10873;51.132;16.848;2023-10-31T09:54:11;24.60;66.60
21425;DHT22;10873;51.132;16.848;2023-10-31T09:56:41;24.60;66.50
21425;DHT22;10873;51.132;16.848;2023-10-31T09:59:07;24.60;66.50
21425;DHT22;10873;51.132;16.848;2023-10-31T10:01:33;24.60;66.50
21425;DHT22;10873;51.132;16.848;2023-10-31T10:04:01;24.60;66.40
21425;DHT22;10873;51.132;16.848;2023-10-31T10:06:27;24.60;66.40
21425;DHT22;10873;51.132;16.848;2023-10-31T10:08:54;24.60;66.30
21425;DHT22;10873;51.132;16.848;2023-10-31T10:11:22;24.60;66.30
21425;DHT22;10873;51.132;16.848;2023-10-31T10:13:48;24.60;66.30
21425;DHT22;10873;51.132;16.848;2023-10-31T10:16:27;24.50;66.20
21425;DHT22;10873;51.132;16.848;2023-10-31T10:18:53;24.60;66.30
21425;DHT22;10873;51.132;16.848;2023-10-31T10:21:21;24.60;66.20
21425;DHT22;10873;51.132;16.848;2023-10-31T10:23:47;24.50;66.00
21425;DHT22;10873;51.132;16.848;2023-10-31T10:26:16;24.60;66.00
21425;DHT22;10873;51.132;16.848;2023-10-31T10:28:41;24.60;65.90
21425;DHT22;10873;51.132;16.848;2023-10-31T10:31:14;24.60;65.80
21425;DHT22;10873;51.132;16.848;2023-10-31T10:33:40;24.50;65.70
21425;DHT22;10873;51.132;16.848;2023-10-31T10:36:09;24.60;65.60
21425;DHT22;10873;51.132;16.848;2023-10-31T10:38:38;24.50;65.50
21425;DHT22;10873;51.132;16.848;2023-10-31T10:41:06;24.50;65.50
21425;DHT22;10873;51.132;16.848;2023-10-31T10:43:44;24.50;65.50
21425;DHT22;10873;51.132;16.848;2023-10-31T10:46:12;24.50;65.50
21425;DHT22;10873;51.132;16.848;2023-10-31T10:48:41;24.50;65.40
21425;DHT22;10873;51.132;16.848;2023-10-31T10:51:14;24.50;65.40
21425;DHT22;10873;51.132;16.848;2023-10-31T10:53:48;24.50;65.30
21425;DHT22;10873;51.132;16.848;2023-10-31T10:56:22;24.50;65.30
21425;DHT22;10873;51.132;16.848;2023-10-31T10:58:52;24.50;65.20
21425;DHT22;10873;51.132;16.848;2023-10-31T11:01:21;24.50;65.10
21425;DHT22;10873;51.132;16.848;2023-10-31T11:03:48;24.50;65.00
21425;DHT22;10873;51.132;16.848;2023-10-31T11:06:15;24.50;64.90
21425;DHT22;10873;51.132;16.848;2023-10-31T11:08:44;24.50;64.80
21425;DHT22;10873;51.132;16.848;2023-10-31T11:11:11;24.50;64.70
21425;DHT22;10873;51.132;16.848;2023-10-31T11:13:37;24.50;64.60
21425;DHT22;10873;51.132;16.848;2023-10-31T11:16:11;24.50;64.60
21425;DHT22;10873;51.132;16.848;2023-10-31T11:18:54;24.50;64.50
21425;DHT22;10873;51.132;16.848;2023-10-31T11:21:22;24.50;64.50
21425;DHT22;10873;51.132;16.848;2023-10-31T11:23:57;24.50;64.40
21425;DHT22;10873;51.132;16.848;2023-10-31T11:26:25;24.50;64.30
21425;DHT22;10873;51.132;16.848;2023-10-31T11:28:51;24.50;64.30
21425;DHT22;10873;51.132;16.848;2023-10-31T11:31:17;24.50;64.20
21425;DHT22;10873;51.132;16.848;2023-10-31T11:33:43;24.50;64.20
21425;DHT22;10873;51.132;16.848;2023-10-31T11:36:12;24.50;64.20
21425;DHT22;10873;51.132;16.848;2023-10-31T11:38:41;24.50;64.10
21425;DHT22;10873;51.132;16.848;2023-10-31T11:41:09;24.50;64.10
21425;DHT22;10873;51.132;16.848;2023-10-31T11:43:53;24.50;64.10
21425;DHT22;10873;51.132;16.848;2023-10-31T11:46:20;24.50;64.10
21425;DHT22;10873;51.132;16.848;2023-10-31T11:48:50;24.50;64.10
21425;DHT22;10873;51.132;16.848;2023-10-31T11:51:17;24.50;64.10
21425;DHT22;10873;51.132;16.848;2023-10-31T11:53:44;24.50;64.00
21425;DHT22;10873;51.132;16.848;2023-10-31T11:56:12;24.50;64.00
21425;DHT22;10873;51.132;16.848;2023-10-31T11:58:38;24.50;64.00
21425;DHT22;10873;51.132;16.848;2023-10-31T12:01:05;24.40;63.90
21425;DHT22;10873;51.132;16.848;2023-10-31T12:03:36;24.50;64.00
21425;DHT22;10873;51.132;16.848;2023-10-31T12:06:03;24.50;63.90
21425;DHT22;10873;51.132;16.848;2023-10-31T12:08:31;24.50;63.80
21425;DHT22;10873;51.132;16.848;2023-10-31T12:11:06;24.50;63.70
21425;DHT22;10873;51.132;16.848;2023-10-31T12:13:35;24.50;63.70
21425;DHT22;10873;51.132;16.848;2023-10-31T12:16:09;24.50;63.60
21425;DHT22;10873;51.132;16.848;2023-10-31T12:18:37;24.40;63.40
21425;DHT22;10873;51.132;16.848;2023-10-31T12:21:05;24.50;63.50
21425;DHT22;10873;51.132;16.848;2023-10-31T12:23:32;24.50;63.40
21425;DHT22;10873;51.132;16.848;2023-10-31T12:25:59;24.50;63.40
21425;DHT22;10873;51.132;16.848;2023-10-31T12:28:25;24.50;63.20
21425;DHT22;10873;51.132;16.848;2023-10-31T12:30:54;24.50;63.10
21425;DHT22;10873;51.132;16.848;2023-10-31T12:33:20;24.40;63.00
21425;DHT22;10873;51.132;16.848;2023-10-31T12:35:51;24.40;62.90
21425;DHT22;10873;51.132;16.848;2023-10-31T12:38:18;24.50;63.00
21425;DHT22;10873;51.132;16.848;2023-10-31T12:40:45;24.50;63.00
21425;DHT22;10873;51.132;16.848;2023-10-31T12:43:11;24.40;62.80
21425;DHT22;10873;51.132;16.848;2023-10-31T12:45:37;24.50;62.90
21425;DHT22;10873;51.132;16.848;2023-10-31T12:48:05;24.40;62.70
21425;DHT22;10873;51.132;16.848;2023-10-31T12:50:33;24.40;62.70
21425;DHT22;10873;51.132;16.848;2023-10-31T12:52:59;24.40;62.60
21425;DHT22;10873;51.132;16.848;2023-10-31T12:55:27;24.50;62.70
21425;DHT22;10873;51.132;16.848;2023-10-31T12:57:54;24.50;62.60
21425;DHT22;10873;51.132;16.848;2023-10-31T13:00:22;24.50;63.40
21425;DHT22;10873;51.132;16.848;2023-10-31T13:02:52;24.50;62.60
21425;DHT22;10873;51.132;16.848;2023-10-31T13:05:28;24.40;62.30
21425;DHT22;10873;51.132;16.848;2023-10-31T13:07:55;24.40;62.30
21425;DHT22;10873;51.132;16.848;2023-10-31T13:10:23;24.40;62.30
21425;DHT22;10873;51.132;16.848;2023-10-31T13:12:50;24.40;62.30
21425;DHT22;10873;51.132;16.848;2023-10-31T13:15:18;24.40;62.30
21425;DHT22;10873;51.132;16.848;2023-10-31T13:17:44;24.40;62.30
21425;DHT22;10873;51.132;16.848;2023-10-31T13:20:12;24.40;62.30
21425;DHT22;10873;51.132;16.848;2023-10-31T13:22:43;24.40;62.30
21425;DHT22;10873;51.132;16.848;2023-10-31T13:25:10;24.40;62.30
21425;DHT22;10873;51.132;16.848;2023-10-31T13:27:37;24.40;62.30
21425;DHT22;10873;51.132;16.848;2023-10-31T13:30:04;24.40;62.20
21425;DHT22;10873;51.132;16.848;2023-10-31T13:32:31;24.50;62.30
21425;DHT22;10873;51.132;16.848;2023-10-31T13:34:59;24.50;62.30
21425;DHT22;10873;51.132;16.848;2023-10-31T13:37:26;24.50;62.30
21425;DHT22;10873;51.132;16.848;2023-10-31T13:39:53;24.50;62.20
21425;DHT22;10873;51.132;16.848;2023-10-31T13:42:19;24.50;62.20
21425;DHT22;10873;51.132;16.848;2023-10-31T13:44:45;24.50;62.20
21425;DHT22;10873;51.132;16.848;2023-10-31T13:47:12;24.50;62.20
21425;DHT22;10873;51.132;16.848;2023-10-31T13:49:38;24.50;62.20
21425;DHT22;10873;51.132;16.848;2023-10-31T13:52:04;24.50;62.20
21425;DHT22;10873;51.132;16.848;2023-10-31T13:54:31;24.50;62.20
21425;DHT22;10873;51.132;16.848;2023-10-31T13:56:59;24.50;62.10
21425;DHT22;10873;51.132;16.848;2023-10-31T13:59:25;24.50;62.10
21425;DHT22;10873;51.132;16.848;2023-10-31T14:01:51;24.50;62.10
21425;DHT22;10873;51.132;16.848;2023-10-31T14:04:18;24.50;62.10
21425;DHT22;10873;51.132;16.848;2023-10-31T14:06:44;24.50;62.10
21425;DHT22;10873;51.132;16.848;2023-10-31T14:09:11;24.50;62.00
21425;DHT22;10873;51.132;16.848;2023-10-31T14:11:38;24.50;62.00
21425;DHT22;10873;51.132;16.848;2023-10-31T14:14:06;24.50;62.10
21425;DHT22;10873;51.132;16.848;2023-10-31T14:16:33;24.50;62.20
21425;DHT22;10873;51.132;16.848;2023-10-31T14:18:59;24.50;62.20
21425;DHT22;10873;51.132;16.848;2023-10-31T14:21:25;24.50;62.30
21425;DHT22;10873;51.132;16.848;2023-10-31T14:23:51;24.50;62.30
21425;DHT22;10873;51.132;16.848;2023-10-31T14:26:19;24.50;62.30
21425;DHT22;10873;51.132;16.848;2023-10-31T14:28:45;24.50;62.30
21425;DHT22;10873;51.132;16.848;2023-10-31T14:31:13;24.40;62.20
21425;DHT22;10873;51.132;16.848;2023-10-31T14:33:39;24.40;62.20
21425;DHT22;10873;51.132;16.848;2023-10-31T14:36:06;24.40;61.50
21425;DHT22;10873;51.132;16.848;2023-10-31T14:38:34;24.40;60.60
21425;DHT22;10873;51.132;16.848;2023-10-31T14:41:00;24.50;61.30
21425;DHT22;10873;51.132;16.848;2023-10-31T14:43:26;24.50;61.30
21425;DHT22;10873;51.132;16.848;2023-10-31T14:45:52;24.50;61.50
21425;DHT22;10873;51.132;16.848;2023-10-31T14:48:21;24.50;61.50
21425;DHT22;10873;51.132;16.848;2023-10-31T14:50:48;24.50;61.50
21425;DHT22;10873;51.132;16.848;2023-10-31T14:53:14;24.50;61.50
21425;DHT22;10873;51.132;16.848;2023-10-31T14:55:40;24.50;61.60
21425;DHT22;10873;51.132;16.848;2023-10-31T14:58:06;24.60;61.60
21425;DHT22;10873;51.132;16.848;2023-10-31T15:00:34;24.50;61.60
21425;DHT22;10873;51.132;16.848;2023-10-31T15:03:00;24.60;61.60
21425;DHT22;10873;51.132;16.848;2023-10-31T15:05:28;24.60;61.70
21425;DHT22;10873;51.132;16.848;2023-10-31T15:07:54;24.60;61.60
21425;DHT22;10873;51.132;16.848;2023-10-31T15:10:20;24.60;61.60
21425;DHT22;10873;51.132;16.848;2023-10-31T15:12:46;24.60;61.60
21425;DHT22;10873;51.132;16.848;2023-10-31T15:15:12;24.70;61.60